createdAt,value
2023-04-09T00:01:22.527Z,18.70
2023-04-09T00:04:24.586Z,18.50
2023-04-09T00:07:26.786Z,18.60
2023-04-09T00:10:29.687Z,18.50
2023-04-09T00:13:39.360Z,18.50
2023-04-09T00:16:41.924Z,18.50
2023-04-09T00:19:45.085Z,18.50
2023-04-09T00:22:47.054Z,18.40
2023-04-09T00:25:49.252Z,18.40
2023-04-09T00:28:51.707Z,18.40
2023-04-09T00:31:53.900Z,18.40
2023-04-09T00:34:56.004Z,18.30
2023-04-09T00:37:59.951Z,18.30
2023-04-09T00:41:02.104Z,18.30
2023-04-09T00:44:04.160Z,18.20
2023-04-09T00:47:06.377Z,18.20
2023-04-09T00:50:08.850Z,18.20
2023-04-09T00:53:13.134Z,18.20
2023-04-09T00:56:16.680Z,18.20
2023-04-09T00:59:19.952Z,18.10
2023-04-09T01:02:22.175Z,18.10
2023-04-09T01:05:36.035Z,18.10
2023-04-09T01:09:05.782Z,18.10
2023-04-09T01:12:27.492Z,18.00
2023-04-09T01:15:36.829Z,18.00
2023-04-09T01:19:12.766Z,18.00
2023-04-09T01:22:48.948Z,18.00
2023-04-09T01:26:03.020Z,18.00
2023-04-09T01:29:07.396Z,18.00
2023-04-09T01:32:12.412Z,17.90
2023-04-09T01:35:14.840Z,17.90
2023-04-09T01:38:18.828Z,18.00
2023-04-09T01:41:22.187Z,17.90
2023-04-09T01:44:26.355Z,17.90
2023-04-09T01:47:28.840Z,17.90
2023-04-09T01:50:31.731Z,17.90
2023-04-09T01:53:35.134Z,17.90
2023-04-09T01:56:45.465Z,17.80
2023-04-09T01:59:47.577Z,17.80
2023-04-09T02:03:07.150Z,17.80
2023-04-09T02:06:22.847Z,17.80
2023-04-09T02:09:26.562Z,17.80
2023-04-09T02:12:31.810Z,17.80
2023-04-09T02:15:36.630Z,17.70
2023-04-09T02:18:38.715Z,17.70
2023-04-09T02:21:40.730Z,17.70
2023-04-09T02:24:44.093Z,17.70
2023-04-09T02:27:46.094Z,17.70
2023-04-09T02:30:48.106Z,17.70
2023-04-09T02:33:51.587Z,17.60
2023-04-09T02:36:54.850Z,17.60
2023-04-09T02:39:56.929Z,17.50
2023-04-09T02:42:59.237Z,17.40
2023-04-09T02:46:01.378Z,17.40
2023-04-09T02:49:03.466Z,17.40
2023-04-09T02:52:05.750Z,17.30
2023-04-09T02:55:08.400Z,17.30
2023-04-09T02:58:10.574Z,17.30
2023-04-09T03:01:12.656Z,17.20
2023-04-09T03:04:14.802Z,17.20
2023-04-09T03:07:16.887Z,17.20
2023-04-09T03:10:18.866Z,17.20
2023-04-09T03:13:20.988Z,17.20
2023-04-09T03:16:25.366Z,17.20
2023-04-09T03:19:27.451Z,17.10
2023-04-09T03:22:29.435Z,17.10
2023-04-09T03:25:32.521Z,17.10
2023-04-09T03:28:34.540Z,17.10
2023-04-09T03:31:36.691Z,17.10
2023-04-09T03:34:38.914Z,17.10
2023-04-09T03:37:40.946Z,17.10
2023-04-09T03:40:43.151Z,17.10
2023-04-09T03:43:45.472Z,17.10
2023-04-09T03:46:47.581Z,17.10
2023-04-09T03:49:49.714Z,17.20
2023-04-09T03:52:51.765Z,17.10
2023-04-09T03:55:53.769Z,17.10
2023-04-09T03:58:55.771Z,17.00
2023-04-09T04:01:57.901Z,17.10
2023-04-09T04:05:00.570Z,17.10
2023-04-09T04:08:02.744Z,17.10
2023-04-09T04:11:05.683Z,17.10
2023-04-09T04:14:07.762Z,17.10
2023-04-09T04:17:11.729Z,17.00
2023-04-09T04:20:13.947Z,17.00
2023-04-09T04:23:15.948Z,17.00
2023-04-09T04:26:19.097Z,17.00
2023-04-09T04:29:21.176Z,17.00
2023-04-09T04:32:23.277Z,17.00
2023-04-09T04:35:25.501Z,17.00
2023-04-09T04:38:28.625Z,17.00
2023-04-09T04:41:30.690Z,17.10
2023-04-09T04:44:32.774Z,17.10
2023-04-09T04:47:34.856Z,17.00
2023-04-09T04:50:36.912Z,17.00
2023-04-09T04:53:38.904Z,17.00
2023-04-09T04:56:41.167Z,17.00
2023-04-09T04:59:43.334Z,17.00
2023-04-09T05:02:45.605Z,17.00
2023-04-09T05:05:48.570Z,17.00
2023-04-09T05:08:51.199Z,17.00
2023-04-09T05:11:53.628Z,16.90
2023-04-09T05:14:57.150Z,16.90
2023-04-09T05:17:59.744Z,16.90
2023-04-09T05:21:03.604Z,16.90
2023-04-09T05:24:06.425Z,16.90
2023-04-09T05:27:08.473Z,16.80
2023-04-09T05:30:10.905Z,16.80
2023-04-09T05:33:13.197Z,16.80
2023-04-09T05:36:19.138Z,16.80
2023-04-09T05:39:21.250Z,16.80
2023-04-09T05:42:24.533Z,16.80
2023-04-09T05:45:28.655Z,16.80
2023-04-09T05:48:30.852Z,16.80
2023-04-09T05:51:32.920Z,16.80
2023-04-09T05:54:36.573Z,16.70
2023-04-09T05:57:38.698Z,16.60
2023-04-09T06:00:40.902Z,16.50
2023-04-09T06:03:43.977Z,16.50
2023-04-09T06:06:47.195Z,16.60
2023-04-09T06:09:50.394Z,16.60
2023-04-09T06:12:52.416Z,16.60
2023-04-09T06:15:54.416Z,16.60
2023-04-09T06:18:57.062Z,16.60
2023-04-09T06:21:59.094Z,16.60
2023-04-09T06:25:01.206Z,16.60
2023-04-09T06:28:04.428Z,16.70
2023-04-09T06:31:07.655Z,16.80
2023-04-09T06:34:09.802Z,16.80
2023-04-09T06:37:11.818Z,16.90
2023-04-09T06:40:15.594Z,16.90
2023-04-09T06:43:17.955Z,17.00
2023-04-09T06:46:21.348Z,17.00
2023-04-09T06:49:23.426Z,17.10
2023-04-09T06:52:26.366Z,17.30
2023-04-09T06:55:28.462Z,17.50
2023-04-09T06:58:32.599Z,17.60
2023-04-09T07:01:38.598Z,17.70
2023-04-09T07:04:41.573Z,18.00
2023-04-09T07:07:43.662Z,18.20
2023-04-09T07:10:47.498Z,18.50
2023-04-09T07:13:49.552Z,18.70
2023-04-09T07:16:51.551Z,19.00
2023-04-09T07:19:54.645Z,19.40
2023-04-09T07:23:02.168Z,19.70
2023-04-09T07:26:05.563Z,19.90
2023-04-09T07:29:08.115Z,20.40
2023-04-09T07:32:10.138Z,20.70
2023-04-09T07:35:13.747Z,21.00
2023-04-09T07:38:16.442Z,21.00
2023-04-09T07:41:18.704Z,21.60
2023-04-09T07:44:23.393Z,21.90
2023-04-09T07:47:26.195Z,22.30
2023-04-09T07:50:28.634Z,22.70
2023-04-09T07:53:30.861Z,23.20
2023-04-09T07:56:32.845Z,23.20
2023-04-09T07:59:36.574Z,23.80
2023-04-09T08:02:38.949Z,24.50
2023-04-09T08:05:41.388Z,24.80
2023-04-09T08:08:43.922Z,25.80
2023-04-09T08:11:46.323Z,26.00
2023-04-09T08:14:48.753Z,27.10
2023-04-09T08:17:50.773Z,27.30
2023-04-09T08:20:52.745Z,27.80
2023-04-09T08:23:59.427Z,28.40
2023-04-09T08:27:02.236Z,28.60
2023-04-09T08:30:04.839Z,28.30
2023-04-09T08:33:09.691Z,29.30
2023-04-09T08:36:12.227Z,29.60
2023-04-09T08:39:15.513Z,30.10
2023-04-09T08:42:18.909Z,30.00
2023-04-09T08:45:21.150Z,30.00
2023-04-09T08:48:24.777Z,30.80
2023-04-09T08:51:28.759Z,30.50
2023-04-09T08:54:30.829Z,30.70
2023-04-09T08:57:40.943Z,31.10
2023-04-09T09:00:43.783Z,31.60
2023-04-09T09:04:00.739Z,32.10
2023-04-09T09:07:06.892Z,32.70
2023-04-09T09:10:09.123Z,32.90
2023-04-09T09:13:25.179Z,33.20
2023-04-09T09:16:27.752Z,33.60
2023-04-09T09:19:33.569Z,34.00
2023-04-09T09:22:54.522Z,33.30
2023-04-09T09:25:57.609Z,33.00
2023-04-09T09:29:04.195Z,34.10
2023-04-09T09:32:13.813Z,34.60
2023-04-09T09:35:17.776Z,32.50
2023-04-09T09:38:20.719Z,32.60
2023-04-09T09:41:23.230Z,33.50
2023-04-09T09:44:33.247Z,34.50
2023-04-09T09:47:36.571Z,35.50
2023-04-09T09:50:44.203Z,34.50
2023-04-09T09:53:53.784Z,33.50
2023-04-09T09:57:03.038Z,34.00
2023-04-09T10:00:08.091Z,35.00
2023-04-09T10:03:16.243Z,34.80
2023-04-09T10:06:19.008Z,34.60
2023-04-09T10:09:23.487Z,35.20
2023-04-09T10:12:26.098Z,35.80
2023-04-09T10:15:31.969Z,36.40
2023-04-09T10:18:34.866Z,35.70
2023-04-09T10:21:56.651Z,36.10
2023-04-09T10:24:59.938Z,35.60
2023-04-09T10:28:02.599Z,35.80
2023-04-09T10:31:07.904Z,35.70
2023-04-09T10:34:11.000Z,34.60
2023-04-09T10:37:20.528Z,35.20
2023-04-09T10:40:22.643Z,35.60
2023-04-09T10:43:24.659Z,35.30
2023-04-09T10:46:34.250Z,35.20
2023-04-09T10:49:39.289Z,35.20
2023-04-09T10:52:42.540Z,34.70
2023-04-09T10:55:49.020Z,34.70
2023-04-09T10:58:51.883Z,34.70
2023-04-09T11:01:54.727Z,34.60
2023-04-09T11:05:16.420Z,35.10
2023-04-09T11:08:19.833Z,35.10
2023-04-09T11:11:26.887Z,35.10
2023-04-09T11:14:30.038Z,35.30
2023-04-09T11:17:37.124Z,34.60
2023-04-09T11:20:39.909Z,34.40
2023-04-09T11:23:43.384Z,34.20
2023-04-09T11:26:46.072Z,34.40
2023-04-09T11:29:48.074Z,33.90
2023-04-09T11:32:53.894Z,34.20
2023-04-09T11:35:57.108Z,34.10
2023-04-09T11:39:02.447Z,33.60
2023-04-09T11:42:04.590Z,33.60
2023-04-09T11:45:08.176Z,33.20
2023-04-09T11:48:10.531Z,32.70
2023-04-09T11:51:13.747Z,31.30
2023-04-09T11:54:16.068Z,30.30
2023-04-09T11:57:19.400Z,29.60
2023-04-09T12:00:24.920Z,29.70
2023-04-09T12:03:33.020Z,29.30
2023-04-09T12:06:40.828Z,29.10
2023-04-09T12:09:49.257Z,28.80
2023-04-09T12:12:51.376Z,28.90
2023-04-09T12:15:53.936Z,28.70
2023-04-09T12:18:56.037Z,28.30
2023-04-09T12:21:58.574Z,28.10
2023-04-09T12:25:00.640Z,28.30
2023-04-09T12:28:04.105Z,28.50
2023-04-09T12:31:10.351Z,28.50
2023-04-09T12:34:13.520Z,28.50
2023-04-09T12:37:15.836Z,28.20
2023-04-09T12:40:19.419Z,27.70
2023-04-09T12:43:21.578Z,27.60
2023-04-09T12:46:23.603Z,27.70
2023-04-09T12:49:25.861Z,27.90
2023-04-09T12:52:27.849Z,28.00
2023-04-09T12:55:29.890Z,27.90
2023-04-09T12:58:32.043Z,27.60
2023-04-09T13:01:35.726Z,27.30
2023-04-09T13:04:37.939Z,27.40
2023-04-09T13:07:42.828Z,27.30
2023-04-09T13:10:46.554Z,26.70
2023-04-09T13:13:49.548Z,26.80
2023-04-09T13:16:52.803Z,27.00
2023-04-09T13:19:56.251Z,27.10
2023-04-09T13:22:58.280Z,26.90
2023-04-09T13:26:01.339Z,27.00
2023-04-09T13:29:04.345Z,27.10
2023-04-09T13:32:11.295Z,27.50
2023-04-09T13:35:13.639Z,27.70
2023-04-09T13:38:16.729Z,27.80
2023-04-09T13:41:18.720Z,27.90
2023-04-09T13:44:21.376Z,27.90
2023-04-09T13:47:24.197Z,28.00
2023-04-09T13:50:26.613Z,28.10
2023-04-09T13:53:31.394Z,28.10
2023-04-09T13:56:33.418Z,28.30
2023-04-09T13:59:36.247Z,28.20
2023-04-09T14:02:38.470Z,28.30
2023-04-09T14:05:40.701Z,28.30
2023-04-09T14:08:43.724Z,28.20
2023-04-09T14:11:45.756Z,28.10
2023-04-09T14:14:47.908Z,28.00
2023-04-09T14:17:50.007Z,28.10
2023-04-09T14:20:52.222Z,27.90
2023-04-09T14:23:54.205Z,27.70
2023-04-09T14:26:56.986Z,27.70
2023-04-09T14:29:59.912Z,27.70
2023-04-09T14:33:02.065Z,27.70
2023-04-09T14:36:04.392Z,27.70
2023-04-09T14:39:06.370Z,27.60
2023-04-09T14:42:14.583Z,27.70
2023-04-09T14:45:16.843Z,27.70
2023-04-09T14:48:18.888Z,27.70
2023-04-09T14:51:21.009Z,27.70
2023-04-09T14:54:23.030Z,27.70
2023-04-09T14:57:25.826Z,27.50
2023-04-09T15:00:27.853Z,27.50
2023-04-09T15:03:30.014Z,27.50
2023-04-09T15:06:32.362Z,27.50
2023-04-09T15:09:34.416Z,27.60
2023-04-09T15:12:36.540Z,27.50
2023-04-09T15:15:41.249Z,27.50
2023-04-09T15:18:43.224Z,27.50
2023-04-09T15:21:45.332Z,27.40
2023-04-09T15:24:47.451Z,27.40
2023-04-09T15:27:49.839Z,27.40
2023-04-09T15:30:51.800Z,27.20
2023-04-09T15:33:53.842Z,27.20
2023-04-09T15:36:55.944Z,27.20
2023-04-09T15:39:59.085Z,27.00
2023-04-09T15:43:05.440Z,26.90
2023-04-09T15:46:09.571Z,26.60
2023-04-09T15:49:11.730Z,26.60
2023-04-09T15:52:13.888Z,26.60
2023-04-09T15:55:17.056Z,26.40
2023-04-09T15:58:20.080Z,26.40
2023-04-09T16:01:22.437Z,26.40
2023-04-09T16:04:24.618Z,26.20
2023-04-09T16:07:26.853Z,26.10
2023-04-09T16:10:28.841Z,26.00
2023-04-09T16:13:31.073Z,25.90
2023-04-09T16:16:33.311Z,25.70
2023-04-09T16:19:35.633Z,25.60
2023-04-09T16:22:38.663Z,25.40
2023-04-09T16:25:45.009Z,25.20
2023-04-09T16:28:50.378Z,25.30
2023-04-09T16:31:52.932Z,25.00
2023-04-09T16:34:56.221Z,24.90
2023-04-09T16:37:59.293Z,24.80
2023-04-09T16:41:01.562Z,24.80
2023-04-09T16:44:04.119Z,24.80
2023-04-09T16:47:06.767Z,24.70
2023-04-09T16:50:12.095Z,24.80
2023-04-09T16:53:14.154Z,24.80
2023-04-09T16:56:16.801Z,24.70
2023-04-09T16:59:21.094Z,24.70
2023-04-09T17:02:24.952Z,24.50
2023-04-09T17:05:26.987Z,24.40
2023-04-09T17:08:29.017Z,24.40
2023-04-09T17:11:32.705Z,24.40
2023-04-09T17:14:36.822Z,24.30
2023-04-09T17:17:39.363Z,24.20
2023-04-09T17:20:41.406Z,23.90
2023-04-09T17:23:44.399Z,24.00
2023-04-09T17:26:46.442Z,24.00
2023-04-09T17:29:48.611Z,23.90
2023-04-09T17:32:51.267Z,23.80
2023-04-09T17:35:53.351Z,23.70
2023-04-09T17:38:56.734Z,23.70
2023-04-09T17:42:00.783Z,23.60
2023-04-09T17:45:02.878Z,23.50
2023-04-09T17:48:04.967Z,23.50
2023-04-09T17:51:07.871Z,23.50
2023-04-09T17:54:09.931Z,23.50
2023-04-09T17:57:12.084Z,23.50
2023-04-09T18:00:14.606Z,23.50
2023-04-09T18:03:16.897Z,23.30
2023-04-09T18:06:19.144Z,23.20
2023-04-09T18:09:21.616Z,23.30
2023-04-09T18:12:23.760Z,23.20
2023-04-09T18:15:25.852Z,23.10
2023-04-09T18:18:29.657Z,23.00
2023-04-09T18:21:31.989Z,22.90
2023-04-09T18:24:34.588Z,22.80
2023-04-09T18:27:36.835Z,22.70
2023-04-09T18:30:38.977Z,22.70
2023-04-09T18:33:41.264Z,22.60
2023-04-09T18:36:43.378Z,22.50
2023-04-09T18:39:46.435Z,22.40
2023-04-09T18:42:52.530Z,22.30
2023-04-09T18:45:58.298Z,22.20
2023-04-09T18:49:00.296Z,22.00
2023-04-09T18:52:05.516Z,21.90
2023-04-09T18:55:09.530Z,21.70
2023-04-09T18:58:15.851Z,21.70
2023-04-09T19:01:20.140Z,21.50
2023-04-09T19:04:22.562Z,21.50
2023-04-09T19:07:24.555Z,21.50
2023-04-09T19:10:27.389Z,21.30
2023-04-09T19:13:29.615Z,21.20
2023-04-09T19:16:35.737Z,21.10
2023-04-09T19:19:37.852Z,21.10
2023-04-09T19:22:40.108Z,21.00
2023-04-09T19:25:42.964Z,20.90
2023-04-09T19:28:45.014Z,20.80
2023-04-09T19:31:47.121Z,20.80
2023-04-09T19:34:49.170Z,20.70
2023-04-09T19:37:51.477Z,20.70
2023-04-09T19:40:53.617Z,20.50
2023-04-09T19:43:57.242Z,20.40
2023-04-09T19:46:59.570Z,20.40
2023-04-09T19:50:01.729Z,20.30
2023-04-09T19:53:04.784Z,20.20
2023-04-09T19:56:07.275Z,20.10
2023-04-09T19:59:09.365Z,20.10
2023-04-09T20:02:11.525Z,20.00
2023-04-09T20:05:14.396Z,19.90
2023-04-09T20:08:16.794Z,19.70
2023-04-09T20:11:20.430Z,19.70
2023-04-09T20:14:22.525Z,19.50
2023-04-09T20:17:25.245Z,19.50
2023-04-09T20:20:27.362Z,19.20
2023-04-09T20:23:30.302Z,19.20
2023-04-09T20:26:32.455Z,19.10
2023-04-09T20:29:34.746Z,18.80
2023-04-09T20:32:37.877Z,18.50
2023-04-09T20:35:39.926Z,18.60
2023-04-09T20:38:42.007Z,18.40
2023-04-09T20:41:44.144Z,18.40
2023-04-09T20:44:46.204Z,18.30
2023-04-09T20:47:48.351Z,18.30
2023-04-09T20:50:53.933Z,18.20
2023-04-09T20:53:58.158Z,18.30
2023-04-09T20:57:01.610Z,18.20
2023-04-09T21:00:03.820Z,18.10
2023-04-09T21:03:06.059Z,18.10
2023-04-09T21:06:09.810Z,18.10
2023-04-09T21:09:13.880Z,18.10
2023-04-09T21:12:15.993Z,18.00
2023-04-09T21:15:18.078Z,17.90
2023-04-09T21:18:20.184Z,17.90
2023-04-09T21:21:22.283Z,18.00
2023-04-09T21:24:24.372Z,18.00
2023-04-09T21:27:26.462Z,18.00
2023-04-09T21:30:29.168Z,18.00
2023-04-09T21:33:31.318Z,17.90
2023-04-09T21:36:39.423Z,17.90
2023-04-09T21:39:42.142Z,17.80
2023-04-09T21:42:44.150Z,17.80
2023-04-09T21:45:46.729Z,17.70
2023-04-09T21:48:48.787Z,17.60
2023-04-09T21:51:50.876Z,17.50
2023-04-09T21:54:52.882Z,17.60
2023-04-09T21:57:56.291Z,17.60
2023-04-09T22:00:58.463Z,17.50
2023-04-09T22:04:02.168Z,17.50
2023-04-09T22:07:04.341Z,17.50
2023-04-09T22:10:07.037Z,17.50
2023-04-09T22:13:09.025Z,17.50
2023-04-09T22:16:11.434Z,17.50
2023-04-09T22:19:14.442Z,17.40
2023-04-09T22:22:17.727Z,17.50
2023-04-09T22:25:19.993Z,17.30
2023-04-09T22:28:29.357Z,17.40
2023-04-09T22:31:31.623Z,17.40
2023-04-09T22:34:34.133Z,17.40
2023-04-09T22:37:36.395Z,17.30
2023-04-09T22:40:38.443Z,17.20
2023-04-09T22:43:41.524Z,17.20
2023-04-09T22:46:43.565Z,17.10
2023-04-09T22:49:46.960Z,17.20
2023-04-09T22:52:51.620Z,17.10
2023-04-09T22:55:54.990Z,17.10
2023-04-09T22:58:57.033Z,17.10
2023-04-09T23:02:00.496Z,17.20
2023-04-09T23:05:02.642Z,17.20
2023-04-09T23:08:05.153Z,17.10
2023-04-09T23:11:07.368Z,17.10
2023-04-09T23:14:09.401Z,17.10
2023-04-09T23:17:11.486Z,17.00
2023-04-09T23:20:22.297Z,17.10
2023-04-09T23:23:24.438Z,17.00
2023-04-09T23:26:26.538Z,16.90
2023-04-09T23:29:28.640Z,16.80
2023-04-09T23:32:30.827Z,16.80
2023-04-09T23:35:33.276Z,16.90
2023-04-09T23:38:35.504Z,16.70
2023-04-09T23:41:38.740Z,16.60
2023-04-09T23:44:40.814Z,16.60
2023-04-09T23:47:42.989Z,16.50
2023-04-09T23:50:45.071Z,16.50
2023-04-09T23:53:47.232Z,16.50
2023-04-09T23:56:49.338Z,16.40
2023-04-09T23:59:52.394Z,16.40
